Ana Sayfa
METAR-TAF:

METAR-TAF

Havaalanları :

Lebanon, New Hampshire, Amerika Birleşik Devletleri

Enlem: 43-37-38N, Boylam: 072-18-21W, yükseklik: 182 m

Güncel hava durumu gözlemi

Rapor saat 06:53 UTC de 1 saat ve 17 dakika önce yapıldı.
Sakin rüzgar
Sıcaklık -8°C
Nem 79%
Basınç 1019 hPa
Görüş mesafesi: 16.1 km
Açık gökyüzü

METAR: KLEB 230653Z AUTO 00000KT 10SM CLR M08/M11 A3010 RMK AO2 SLP205 I1000 T10831106

Saat: 03:10 (08:10 UTC)

Tahmin

Rapor saat 05:24 UTC de 2 saat ve 46 dakika önce yapıldı.
Ayın 23'si saat 06 UTC'den ayın 24'si saat 06 UTC'ye kadar geçerli Tahmin
Rüzgar güneybatıdan 2 kt
Görüş mesafesi: 10 km
25000 ft yükseklikte az bulutlu

TAF: KLEB 230524Z 2306/2406 22002KT P6SM FEW250

4.000'den fazla havaalanı için hava durumu gözlemleri ve tahminleri (METAR ve TAF raporları).

Kullanılabilir istasyonlar harita üzerinde sarı ve kırmızı noktalarla gösterilir.

İstasyonun adını görmek için fareyi noktanın üzerinde gezdirin.

Sonrasında hava gözlem ve tahminlerini görmek için tıklayın.

Haritayı değiştirmek için: yaklaştırmak için siyah artı işaretli yeşil düğmeye ve uzaklaştırmak için de eksi işaretli düğmeye hızla tıklayın; bitişik haritalar için yeşil okları kullanın.


METAR-TAF: